sensor_id;sensor_type;location;lat;lon;timestamp;P1;durP1;ratioP1;P2;durP2;ratioP2
4428;SDS011;2227;47.810;8.810;2023-02-28T04:45:48;612.78;;;437.45;;
4428;SDS011;2227;47.810;8.810;2023-02-28T04:48:15;614.53;;;438.07;;
4428;SDS011;2227;47.810;8.810;2023-02-28T04:50:41;615.97;;;442.55;;
4428;SDS011;2227;47.810;8.810;2023-02-28T04:53:08;621.22;;;452.63;;
4428;SDS011;2227;47.810;8.810;2023-02-28T04:55:34;617.42;;;442.02;;
4428;SDS011;2227;47.810;8.810;2023-02-28T04:58:01;618.70;;;452.60;;
4428;SDS011;2227;47.810;8.810;2023-02-28T05:00:28;626.08;;;453.17;;
4428;SDS011;2227;47.810;8.810;2023-02-28T05:02:54;620.90;;;442.40;;
4428;SDS011;2227;47.810;8.810;2023-02-28T05:05:21;618.75;;;445.45;;
4428;SDS011;2227;47.810;8.810;2023-02-28T05:07:48;617.65;;;448.20;;
4428;SDS011;2227;47.810;8.810;2023-02-28T05:10:15;620.72;;;451.23;;
4428;SDS011;2227;47.810;8.810;2023-02-28T05:12:42;622.40;;;448.60;;
4428;SDS011;2227;47.810;8.810;2023-02-28T05:15:10;618.95;;;452.13;;
4428;SDS011;2227;47.810;8.810;2023-02-28T05:17:39;617.05;;;448.75;;
4428;SDS011;2227;47.810;8.810;2023-02-28T05:20:06;621.90;;;442.95;;
4428;SDS011;2227;47.810;8.810;2023-02-28T05:22:41;618.72;;;450.17;;
4428;SDS011;2227;47.810;8.810;2023-02-28T05:25:18;616.63;;;448.98;;
4428;SDS011;2227;47.810;8.810;2023-02-28T05:27:47;610.08;;;440.33;;
4428;SDS011;2227;47.810;8.810;2023-02-28T05:30:14;609.50;;;451.10;;
4428;SDS011;2227;47.810;8.810;2023-02-28T05:32:41;603.90;;;439.50;;
4428;SDS011;2227;47.810;8.810;2023-02-28T05:35:11;603.50;;;444.38;;
4428;SDS011;2227;47.810;8.810;2023-02-28T05:37:38;607.55;;;442.15;;
4428;SDS011;2227;47.810;8.810;2023-02-28T05:40:05;609.00;;;441.92;;
4428;SDS011;2227;47.810;8.810;2023-02-28T05:42:36;610.15;;;439.90;;
4428;SDS011;2227;47.810;8.810;2023-02-28T05:45:04;612.88;;;445.25;;
4428;SDS011;2227;47.810;8.810;2023-02-28T05:47:33;613.87;;;439.53;;
4428;SDS011;2227;47.810;8.810;2023-02-28T05:50:00;615.47;;;439.75;;
4428;SDS011;2227;47.810;8.810;2023-02-28T05:52:27;615.63;;;442.92;;
4428;SDS011;2227;47.810;8.810;2023-02-28T05:54:56;618.28;;;442.77;;
4428;SDS011;2227;47.810;8.810;2023-02-28T05:57:22;616.40;;;444.50;;
4428;SDS011;2227;47.810;8.810;2023-02-28T05:59:50;624.42;;;448.50;;
4428;SDS011;2227;47.810;8.810;2023-02-28T06:02:17;618.90;;;443.15;;
4428;SDS011;2227;47.810;8.810;2023-02-28T06:04:44;622.15;;;450.70;;
4428;SDS011;2227;47.810;8.810;2023-02-28T06:07:11;616.88;;;451.10;;
4428;SDS011;2227;47.810;8.810;2023-02-28T06:09:38;615.80;;;446.52;;
4428;SDS011;2227;47.810;8.810;2023-02-28T06:12:05;621.17;;;454.52;;
4428;SDS011;2227;47.810;8.810;2023-02-28T06:14:33;615.28;;;449.75;;
4428;SDS011;2227;47.810;8.810;2023-02-28T06:17:00;614.30;;;449.23;;
4428;SDS011;2227;47.810;8.810;2023-02-28T06:19:28;616.70;;;458.52;;
4428;SDS011;2227;47.810;8.810;2023-02-28T06:21:56;618.00;;;450.23;;
4428;SDS011;2227;47.810;8.810;2023-02-28T06:24:24;617.37;;;444.20;;
4428;SDS011;2227;47.810;8.810;2023-02-28T06:26:53;615.85;;;445.85;;
4428;SDS011;2227;47.810;8.810;2023-02-28T06:29:20;618.03;;;447.23;;
4428;SDS011;2227;47.810;8.810;2023-02-28T06:31:47;618.05;;;451.85;;
4428;SDS011;2227;47.810;8.810;2023-02-28T06:34:14;615.65;;;439.52;;
4428;SDS011;2227;47.810;8.810;2023-02-28T06:36:41;614.63;;;452.27;;
4428;SDS011;2227;47.810;8.810;2023-02-28T06:39:09;613.28;;;436.98;;
4428;SDS011;2227;47.810;8.810;2023-02-28T06:41:36;613.40;;;436.63;;
4428;SDS011;2227;47.810;8.810;2023-02-28T06:44:19;613.25;;;434.45;;
4428;SDS011;2227;47.810;8.810;2023-02-28T06:46:46;617.45;;;444.27;;
4428;SDS011;2227;47.810;8.810;2023-02-28T06:49:12;620.05;;;449.27;;
4428;SDS011;2227;47.810;8.810;2023-02-28T06:51:41;627.50;;;451.23;;
4428;SDS011;2227;47.810;8.810;2023-02-28T06:54:11;620.65;;;439.08;;
4428;SDS011;2227;47.810;8.810;2023-02-28T06:56:38;626.33;;;449.85;;
4428;SDS011;2227;47.810;8.810;2023-02-28T06:59:05;622.85;;;449.00;;
4428;SDS011;2227;47.810;8.810;2023-02-28T07:01:32;617.75;;;446.60;;
4428;SDS011;2227;47.810;8.810;2023-02-28T07:03:59;614.58;;;449.27;;
4428;SDS011;2227;47.810;8.810;2023-02-28T07:06:26;613.83;;;443.65;;
4428;SDS011;2227;47.810;8.810;2023-02-28T07:08:54;607.93;;;446.47;;
4428;SDS011;2227;47.810;8.810;2023-02-28T07:11:21;612.47;;;454.67;;
4428;SDS011;2227;47.810;8.810;2023-02-28T07:13:52;612.50;;;446.20;;
4428;SDS011;2227;47.810;8.810;2023-02-28T07:16:20;613.03;;;448.88;;
4428;SDS011;2227;47.810;8.810;2023-02-28T07:18:47;616.28;;;451.00;;
4428;SDS011;2227;47.810;8.810;2023-02-28T07:21:15;615.60;;;456.30;;
4428;SDS011;2227;47.810;8.810;2023-02-28T07:23:42;617.85;;;453.42;;
4428;SDS011;2227;47.810;8.810;2023-02-28T07:26:11;612.50;;;445.33;;
4428;SDS011;2227;47.810;8.810;2023-02-28T07:28:41;615.08;;;448.17;;
4428;SDS011;2227;47.810;8.810;2023-02-28T07:31:09;613.58;;;448.35;;
4428;SDS011;2227;47.810;8.810;2023-02-28T07:33:36;615.70;;;452.80;;
4428;SDS011;2227;47.810;8.810;2023-02-28T07:36:04;617.78;;;452.85;;
4428;SDS011;2227;47.810;8.810;2023-02-28T07:38:36;613.70;;;452.15;;
4428;SDS011;2227;47.810;8.810;2023-02-28T07:41:03;622.07;;;463.17;;
4428;SDS011;2227;47.810;8.810;2023-02-28T07:43:30;620.38;;;453.42;;
4428;SDS011;2227;47.810;8.810;2023-02-28T07:46:02;621.92;;;450.38;;
4428;SDS011;2227;47.810;8.810;2023-02-28T07:48:37;623.03;;;449.48;;
4428;SDS011;2227;47.810;8.810;2023-02-28T07:51:04;624.83;;;452.15;;
4428;SDS011;2227;47.810;8.810;2023-02-28T07:53:31;627.60;;;455.90;;
4428;SDS011;2227;47.810;8.810;2023-02-28T07:55:58;626.38;;;456.52;;
4428;SDS011;2227;47.810;8.810;2023-02-28T07:58:27;628.63;;;453.83;;
4428;SDS011;2227;47.810;8.810;2023-02-28T08:00:55;629.70;;;461.00;;
4428;SDS011;2227;47.810;8.810;2023-02-28T08:03:23;632.20;;;448.50;;
4428;SDS011;2227;47.810;8.810;2023-02-28T08:05:50;629.20;;;450.85;;
4428;SDS011;2227;47.810;8.810;2023-02-28T08:08:18;632.58;;;436.40;;
4428;SDS011;2227;47.810;8.810;2023-02-28T08:10:45;633.13;;;452.20;;
4428;SDS011;2227;47.810;8.810;2023-02-28T08:13:12;636.83;;;456.02;;
4428;SDS011;2227;47.810;8.810;2023-02-28T08:15:40;638.03;;;452.20;;
4428;SDS011;2227;47.810;8.810;2023-02-28T08:18:08;638.80;;;461.80;;
4428;SDS011;2227;47.810;8.810;2023-02-28T08:20:35;636.83;;;451.77;;
4428;SDS011;2227;47.810;8.810;2023-02-28T08:23:02;635.90;;;462.33;;
4428;SDS011;2227;47.810;8.810;2023-02-28T08:25:28;635.17;;;459.83;;
4428;SDS011;2227;47.810;8.810;2023-02-28T08:27:55;641.72;;;455.50;;
4428;SDS011;2227;47.810;8.810;2023-02-28T08:30:22;643.33;;;450.45;;
4428;SDS011;2227;47.810;8.810;2023-02-28T08:32:48;641.47;;;453.25;;
4428;SDS011;2227;47.810;8.810;2023-02-28T08:35:15;643.33;;;452.90;;
4428;SDS011;2227;47.810;8.810;2023-02-28T08:37:42;649.15;;;455.17;;
4428;SDS011;2227;47.810;8.810;2023-02-28T08:40:09;651.80;;;452.15;;
4428;SDS011;2227;47.810;8.810;2023-02-28T08:42:36;650.42;;;446.55;;
4428;SDS011;2227;47.810;8.810;2023-02-28T08:45:03;648.58;;;443.38;;
4428;SDS011;2227;47.810;8.810;2023-02-28T08:47:30;646.75;;;442.83;;
4428;SDS011;2227;47.810;8.810;2023-02-28T08:49:56;648.50;;;441.38;;
4428;SDS011;2227;47.810;8.810;2023-02-28T08:52:23;644.70;;;449.13;;
4428;SDS011;2227;47.810;8.810;2023-02-28T08:54:50;642.75;;;450.40;;
4428;SDS011;2227;47.810;8.810;2023-02-28T08:57:16;646.05;;;456.50;;
4428;SDS011;2227;47.810;8.810;2023-02-28T08:59:43;645.45;;;444.80;;
4428;SDS011;2227;47.810;8.810;2023-02-28T09:02:12;651.72;;;431.65;;
4428;SDS011;2227;47.810;8.810;2023-02-28T09:04:40;647.63;;;450.55;;
4428;SDS011;2227;47.810;8.810;2023-02-28T09:07:07;646.57;;;430.70;;
4428;SDS011;2227;47.810;8.810;2023-02-28T09:09:34;642.80;;;426.58;;
4428;SDS011;2227;47.810;8.810;2023-02-28T09:12:00;646.45;;;436.48;;
4428;SDS011;2227;47.810;8.810;2023-02-28T09:14:28;643.47;;;426.63;;
4428;SDS011;2227;47.810;8.810;2023-02-28T09:16:54;641.83;;;436.30;;
4428;SDS011;2227;47.810;8.810;2023-02-28T09:19:21;647.95;;;452.02;;
4428;SDS011;2227;47.810;8.810;2023-02-28T09:21:48;651.33;;;447.63;;
4428;SDS011;2227;47.810;8.810;2023-02-28T09:24:15;652.45;;;449.83;;
4428;SDS011;2227;47.810;8.810;2023-02-28T09:26:41;657.25;;;445.63;;
4428;SDS011;2227;47.810;8.810;2023-02-28T09:29:28;653.90;;;453.67;;
4428;SDS011;2227;47.810;8.810;2023-02-28T09:31:55;651.20;;;454.60;;
4428;SDS011;2227;47.810;8.810;2023-02-28T09:34:25;657.83;;;452.52;;
4428;SDS011;2227;47.810;8.810;2023-02-28T09:36:53;661.63;;;448.15;;
4428;SDS011;2227;47.810;8.810;2023-02-28T09:39:21;660.10;;;445.58;;
4428;SDS011;2227;47.810;8.810;2023-02-28T09:41:50;656.60;;;434.88;;
4428;SDS011;2227;47.810;8.810;2023-02-28T09:49:53;660.13;;;425.05;;
4428;SDS011;2227;47.810;8.810;2023-02-28T09:52:28;659.72;;;421.38;;
4428;SDS011;2227;47.810;8.810;2023-02-28T09:54:59;654.10;;;429.73;;
4428;SDS011;2227;47.810;8.810;2023-02-28T09:57:45;652.83;;;435.63;;
4428;SDS011;2227;47.810;8.810;2023-02-28T10:03:03;655.22;;;439.40;;
4428;SDS011;2227;47.810;8.810;2023-02-28T10:06:17;658.13;;;445.27;;
4428;SDS011;2227;47.810;8.810;2023-02-28T10:08:55;655.55;;;450.70;;
4428;SDS011;2227;47.810;8.810;2023-02-28T10:11:28;657.10;;;446.50;;
4428;SDS011;2227;47.810;8.810;2023-02-28T10:14:02;654.50;;;457.30;;
4428;SDS011;2227;47.810;8.810;2023-02-28T10:19:22;659.80;;;435.35;;
4428;SDS011;2227;47.810;8.810;2023-02-28T10:24:48;657.90;;;459.17;;
4428;SDS011;2227;47.810;8.810;2023-02-28T10:27:21;654.08;;;452.70;;
4428;SDS011;2227;47.810;8.810;2023-02-28T10:29:50;652.20;;;449.60;;
4428;SDS011;2227;47.810;8.810;2023-02-28T10:32:18;652.75;;;442.77;;
4428;SDS011;2227;47.810;8.810;2023-02-28T10:35:36;648.00;;;448.65;;
4428;SDS011;2227;47.810;8.810;2023-02-28T10:37:49;654.75;;;460.67;;
4428;SDS011;2227;47.810;8.810;2023-02-28T10:45:52;653.40;;;447.15;;
4428;SDS011;2227;47.810;8.810;2023-02-28T10:51:10;655.58;;;434.45;;
4428;SDS011;2227;47.810;8.810;2023-02-28T10:56:27;646.65;;;448.70;;
4428;SDS011;2227;47.810;8.810;2023-02-28T11:03:58;649.00;;;457.65;;
4428;SDS011;2227;47.810;8.810;2023-02-28T11:06:26;652.88;;;468.77;;
4428;SDS011;2227;47.810;8.810;2023-02-28T11:08:58;651.38;;;471.25;;
4428;SDS011;2227;47.810;8.810;2023-02-28T11:11:27;652.97;;;480.38;;
4428;SDS011;2227;47.810;8.810;2023-02-28T11:14:02;655.50;;;482.70;;
4428;SDS011;2227;47.810;8.810;2023-02-28T11:16:34;661.50;;;480.45;;
4428;SDS011;2227;47.810;8.810;2023-02-28T11:19:04;658.60;;;481.10;;
4428;SDS011;2227;47.810;8.810;2023-02-28T11:21:45;662.28;;;478.17;;
4428;SDS011;2227;47.810;8.810;2023-02-28T11:24:41;667.88;;;480.80;;
4428;SDS011;2227;47.810;8.810;2023-02-28T11:29:56;667.53;;;491.10;;
4428;SDS011;2227;47.810;8.810;2023-02-28T11:32:24;674.60;;;500.42;;
4428;SDS011;2227;47.810;8.810;2023-02-28T11:37:37;670.92;;;501.15;;
4428;SDS011;2227;47.810;8.810;2023-02-28T11:40:05;670.00;;;491.98;;
4428;SDS011;2227;47.810;8.810;2023-02-28T11:43:23;669.72;;;495.60;;
4428;SDS011;2227;47.810;8.810;2023-02-28T11:45:36;669.13;;;508.17;;
4428;SDS011;2227;47.810;8.810;2023-02-28T11:48:23;669.17;;;499.30;;
4428;SDS011;2227;47.810;8.810;2023-02-28T11:56:33;668.90;;;502.90;;
4428;SDS011;2227;47.810;8.810;2023-02-28T11:59:19;669.10;;;500.17;;
4428;SDS011;2227;47.810;8.810;2023-02-28T12:10:26;672.42;;;507.70;;
4428;SDS011;2227;47.810;8.810;2023-02-28T12:18:40;673.28;;;518.80;;
4428;SDS011;2227;47.810;8.810;2023-02-28T12:27:20;663.93;;;511.27;;
4428;SDS011;2227;47.810;8.810;2023-02-28T12:30:03;669.17;;;504.35;;
4428;SDS011;2227;47.810;8.810;2023-02-28T12:32:44;661.75;;;512.78;;
4428;SDS011;2227;47.810;8.810;2023-02-28T12:35:16;657.75;;;502.08;;
4428;SDS011;2227;47.810;8.810;2023-02-28T12:37:59;653.63;;;504.60;;
4428;SDS011;2227;47.810;8.810;2023-02-28T12:40:33;657.60;;;516.70;;
4428;SDS011;2227;47.810;8.810;2023-02-28T12:43:27;653.78;;;518.40;;
4428;SDS011;2227;47.810;8.810;2023-02-28T12:46:09;661.75;;;530.40;;
4428;SDS011;2227;47.810;8.810;2023-02-28T12:48:44;660.63;;;526.08;;
4428;SDS011;2227;47.810;8.810;2023-02-28T12:51:15;659.45;;;528.25;;
4428;SDS011;2227;47.810;8.810;2023-02-28T13:10:03;655.55;;;524.50;;
4428;SDS011;2227;47.810;8.810;2023-02-28T13:12:33;659.55;;;531.20;;
4428;SDS011;2227;47.810;8.810;2023-02-28T13:15:03;662.05;;;530.15;;
4428;SDS011;2227;47.810;8.810;2023-02-28T13:17:38;656.88;;;532.13;;
4428;SDS011;2227;47.810;8.810;2023-02-28T13:20:18;651.78;;;532.92;;
4428;SDS011;2227;47.810;8.810;2023-02-28T13:23:14;650.75;;;532.90;;
4428;SDS011;2227;47.810;8.810;2023-02-28T13:26:04;648.05;;;534.20;;
4428;SDS011;2227;47.810;8.810;2023-02-28T13:31:27;651.07;;;538.27;;
4428;SDS011;2227;47.810;8.810;2023-02-28T13:38:59;652.45;;;523.38;;
4428;SDS011;2227;47.810;8.810;2023-02-28T13:41:48;643.67;;;521.20;;
4428;SDS011;2227;47.810;8.810;2023-02-28T13:44:22;648.47;;;525.90;;
4428;SDS011;2227;47.810;8.810;2023-02-28T13:51:49;651.03;;;530.65;;
4428;SDS011;2227;47.810;8.810;2023-02-28T13:57:10;651.92;;;533.95;;
4428;SDS011;2227;47.810;8.810;2023-02-28T14:07:40;651.47;;;526.83;;
4428;SDS011;2227;47.810;8.810;2023-02-28T14:10:20;653.65;;;519.38;;
4428;SDS011;2227;47.810;8.810;2023-02-28T14:18:00;655.83;;;524.65;;
4428;SDS011;2227;47.810;8.810;2023-02-28T14:20:30;656.22;;;528.00;;
4428;SDS011;2227;47.810;8.810;2023-02-28T14:23:21;656.67;;;528.80;;
4428;SDS011;2227;47.810;8.810;2023-02-28T14:26:02;655.25;;;531.35;;
4428;SDS011;2227;47.810;8.810;2023-02-28T14:31:25;656.88;;;531.42;;
4428;SDS011;2227;47.810;8.810;2023-02-28T14:36:40;658.33;;;530.70;;
4428;SDS011;2227;47.810;8.810;2023-02-28T14:41:44;652.57;;;530.60;;
4428;SDS011;2227;47.810;8.810;2023-02-28T14:44:21;653.13;;;526.83;;
4428;SDS011;2227;47.810;8.810;2023-02-28T14:46:59;651.40;;;534.03;;
4428;SDS011;2227;47.810;8.810;2023-02-28T14:49:34;654.15;;;537.97;;
4428;SDS011;2227;47.810;8.810;2023-02-28T14:54:39;659.17;;;553.00;;
4428;SDS011;2227;47.810;8.810;2023-02-28T14:57:06;667.83;;;550.13;;
4428;SDS011;2227;47.810;8.810;2023-02-28T14:59:46;682.27;;;562.83;;
4428;SDS011;2227;47.810;8.810;2023-02-28T15:02:22;691.97;;;583.80;;
4428;SDS011;2227;47.810;8.810;2023-02-28T15:04:55;697.97;;;600.25;;
4428;SDS011;2227;47.810;8.810;2023-02-28T15:07:23;696.70;;;609.17;;
4428;SDS011;2227;47.810;8.810;2023-02-28T15:13:00;720.27;;;642.00;;
4428;SDS011;2227;47.810;8.810;2023-02-28T15:15:50;731.80;;;653.40;;
4428;SDS011;2227;47.810;8.810;2023-02-28T15:20:59;721.72;;;643.72;;
4428;SDS011;2227;47.810;8.810;2023-02-28T15:23:33;719.05;;;641.05;;
4428;SDS011;2227;47.810;8.810;2023-02-28T15:26:02;719.80;;;641.40;;
4428;SDS011;2227;47.810;8.810;2023-02-28T15:28:30;714.42;;;635.97;;
4428;SDS011;2227;47.810;8.810;2023-02-28T15:30:58;707.55;;;629.35;;
4428;SDS011;2227;47.810;8.810;2023-02-28T15:33:28;706.07;;;626.20;;
4428;SDS011;2227;47.810;8.810;2023-02-28T15:38:59;706.60;;;617.73;;
4428;SDS011;2227;47.810;8.810;2023-02-28T15:41:41;703.22;;;617.00;;
4428;SDS011;2227;47.810;8.810;2023-02-28T15:46:54;712.00;;;634.22;;
4428;SDS011;2227;47.810;8.810;2023-02-28T15:49:48;720.45;;;642.78;;
4428;SDS011;2227;47.810;8.810;2023-02-28T15:52:21;723.00;;;645.33;;
4428;SDS011;2227;47.810;8.810;2023-02-28T15:55:07;722.88;;;644.78;;
4428;SDS011;2227;47.810;8.810;2023-02-28T15:57:55;727.38;;;649.33;;
4428;SDS011;2227;47.810;8.810;2023-02-28T16:00:27;737.53;;;659.05;;
4428;SDS011;2227;47.810;8.810;2023-02-28T16:02:55;729.00;;;650.95;;
4428;SDS011;2227;47.810;8.810;2023-02-28T16:05:23;737.78;;;660.17;;
4428;SDS011;2227;47.810;8.810;2023-02-28T16:08:00;745.30;;;667.25;;
4428;SDS011;2227;47.810;8.810;2023-02-28T16:10:32;748.50;;;670.83;;
4428;SDS011;2227;47.810;8.810;2023-02-28T16:13:01;749.60;;;671.88;;
4428;SDS011;2227;47.810;8.810;2023-02-28T16:15:29;745.78;;;667.88;;
4428;SDS011;2227;47.810;8.810;2023-02-28T16:18:01;730.10;;;652.95;;
4428;SDS011;2227;47.810;8.810;2023-02-28T16:20:29;732.03;;;654.63;;
4428;SDS011;2227;47.810;8.810;2023-02-28T16:22:56;722.25;;;645.38;;
4428;SDS011;2227;47.810;8.810;2023-02-28T16:25:29;718.60;;;640.88;;
4428;SDS011;2227;47.810;8.810;2023-02-28T16:28:01;719.28;;;641.95;;
4428;SDS011;2227;47.810;8.810;2023-02-28T16:30:28;701.83;;;624.25;;
4428;SDS011;2227;47.810;8.810;2023-02-28T16:32:59;696.95;;;619.88;;
4428;SDS011;2227;47.810;8.810;2023-02-28T16:35:26;698.88;;;611.25;;
4428;SDS011;2227;47.810;8.810;2023-02-28T16:37:52;690.60;;;607.78;;
4428;SDS011;2227;47.810;8.810;2023-02-28T16:40:21;689.38;;;602.28;;
4428;SDS011;2227;47.810;8.810;2023-02-28T16:42:50;709.42;;;610.15;;
4428;SDS011;2227;47.810;8.810;2023-02-28T16:45:26;698.03;;;603.60;;
4428;SDS011;2227;47.810;8.810;2023-02-28T16:47:54;689.25;;;598.80;;
4428;SDS011;2227;47.810;8.810;2023-02-28T16:50:23;692.33;;;601.85;;
4428;SDS011;2227;47.810;8.810;2023-02-28T16:52:51;689.97;;;592.55;;
4428;SDS011;2227;47.810;8.810;2023-02-28T16:55:18;696.00;;;592.13;;
4428;SDS011;2227;47.810;8.810;2023-02-28T16:57:46;695.75;;;588.92;;
4428;SDS011;2227;47.810;8.810;2023-02-28T17:00:17;688.45;;;583.10;;
4428;SDS011;2227;47.810;8.810;2023-02-28T17:02:44;690.50;;;577.22;;
4428;SDS011;2227;47.810;8.810;2023-02-28T17:05:12;684.20;;;552.22;;
4428;SDS011;2227;47.810;8.810;2023-02-28T17:07:41;682.47;;;556.83;;
4428;SDS011;2227;47.810;8.810;2023-02-28T17:10:16;679.93;;;544.53;;
4428;SDS011;2227;47.810;8.810;2023-02-28T17:12:44;682.67;;;545.90;;
4428;SDS011;2227;47.810;8.810;2023-02-28T17:15:11;681.38;;;535.55;;
4428;SDS011;2227;47.810;8.810;2023-02-28T17:17:40;680.15;;;538.50;;
4428;SDS011;2227;47.810;8.810;2023-02-28T17:20:11;681.22;;;544.67;;
4428;SDS011;2227;47.810;8.810;2023-02-28T17:22:42;680.58;;;545.47;;
4428;SDS011;2227;47.810;8.810;2023-02-28T17:25:09;678.80;;;534.75;;
4428;SDS011;2227;47.810;8.810;2023-02-28T17:27:37;677.60;;;541.08;;
4428;SDS011;2227;47.810;8.810;2023-02-28T17:30:14;678.45;;;535.25;;
4428;SDS011;2227;47.810;8.810;2023-02-28T17:32:42;683.72;;;541.45;;
4428;SDS011;2227;47.810;8.810;2023-02-28T17:35:09;673.33;;;525.58;;
4428;SDS011;2227;47.810;8.810;2023-02-28T17:37:36;674.38;;;522.22;;
4428;SDS011;2227;47.810;8.810;2023-02-28T17:40:03;675.78;;;523.20;;
4428;SDS011;2227;47.810;8.810;2023-02-28T17:42:30;676.40;;;525.35;;
4428;SDS011;2227;47.810;8.810;2023-02-28T17:44:57;674.35;;;517.78;;
4428;SDS011;2227;47.810;8.810;2023-02-28T17:47:24;676.08;;;516.42;;
4428;SDS011;2227;47.810;8.810;2023-02-28T17:49:51;674.00;;;520.95;;
4428;SDS011;2227;47.810;8.810;2023-02-28T17:52:17;670.30;;;512.85;;
4428;SDS011;2227;47.810;8.810;2023-02-28T17:54:44;675.40;;;521.00;;
4428;SDS011;2227;47.810;8.810;2023-02-28T17:57:12;667.67;;;515.45;;
4428;SDS011;2227;47.810;8.810;2023-02-28T17:59:42;667.28;;;516.72;;
4428;SDS011;2227;47.810;8.810;2023-02-28T18:02:09;667.47;;;508.33;;
4428;SDS011;2227;47.810;8.810;2023-02-28T18:04:38;668.58;;;512.05;;
4428;SDS011;2227;47.810;8.810;2023-02-28T18:07:06;668.37;;;506.27;;
4428;SDS011;2227;47.810;8.810;2023-02-28T18:09:35;662.72;;;503.55;;
4428;SDS011;2227;47.810;8.810;2023-02-28T18:12:01;666.83;;;508.08;;
4428;SDS011;2227;47.810;8.810;2023-02-28T18:14:28;671.95;;;500.90;;
4428;SDS011;2227;47.810;8.810;2023-02-28T18:16:55;673.33;;;487.38;;
4428;SDS011;2227;47.810;8.810;2023-02-28T18:19:22;670.88;;;489.20;;
4428;SDS011;2227;47.810;8.810;2023-02-28T18:21:50;673.20;;;489.42;;
4428;SDS011;2227;47.810;8.810;2023-02-28T18:24:18;681.50;;;484.40;;
4428;SDS011;2227;47.810;8.810;2023-02-28T18:26:46;671.03;;;480.17;;
4428;SDS011;2227;47.810;8.810;2023-02-28T18:29:17;665.75;;;483.50;;
4428;SDS011;2227;47.810;8.810;2023-02-28T18:31:47;665.95;;;484.85;;
4428;SDS011;2227;47.810;8.810;2023-02-28T18:34:14;666.38;;;477.17;;
4428;SDS011;2227;47.810;8.810;2023-02-28T18:36:41;665.10;;;473.95;;
4428;SDS011;2227;47.810;8.810;2023-02-28T18:39:08;669.13;;;475.42;;
4428;SDS011;2227;47.810;8.810;2023-02-28T18:41:37;665.83;;;468.40;;
4428;SDS011;2227;47.810;8.810;2023-02-28T18:44:04;661.15;;;471.23;;
4428;SDS011;2227;47.810;8.810;2023-02-28T18:46:44;686.28;;;478.27;;
4428;SDS011;2227;47.810;8.810;2023-02-28T18:49:11;676.60;;;481.67;;
4428;SDS011;2227;47.810;8.810;2023-02-28T18:51:38;659.33;;;472.17;;
4428;SDS011;2227;47.810;8.810;2023-02-28T18:54:05;664.78;;;475.15;;
4428;SDS011;2227;47.810;8.810;2023-02-28T18:56:32;663.53;;;459.48;;
4428;SDS011;2227;47.810;8.810;2023-02-28T18:58:58;662.58;;;466.23;;
4428;SDS011;2227;47.810;8.810;2023-02-28T19:01:26;668.72;;;452.60;;
4428;SDS011;2227;47.810;8.810;2023-02-28T19:03:56;667.70;;;455.80;;
4428;SDS011;2227;47.810;8.810;2023-02-28T19:06:26;665.75;;;459.92;;
4428;SDS011;2227;47.810;8.810;2023-02-28T19:08:58;677.75;;;452.73;;
4428;SDS011;2227;47.810;8.810;2023-02-28T19:11:29;678.42;;;451.08;;
4428;SDS011;2227;47.810;8.810;2023-02-28T19:13:56;677.50;;;442.20;;
4428;SDS011;2227;47.810;8.810;2023-02-28T19:16:23;673.60;;;437.85;;
4428;SDS011;2227;47.810;8.810;2023-02-28T19:18:50;675.13;;;443.90;;
4428;SDS011;2227;47.810;8.810;2023-02-28T19:21:17;676.25;;;448.92;;
4428;SDS011;2227;47.810;8.810;2023-02-28T19:23:45;678.37;;;450.67;;
4428;SDS011;2227;47.810;8.810;2023-02-28T19:26:13;682.80;;;448.20;;
4428;SDS011;2227;47.810;8.810;2023-02-28T19:28:45;677.90;;;444.13;;
4428;SDS011;2227;47.810;8.810;2023-02-28T19:31:16;680.92;;;442.85;;
4428;SDS011;2227;47.810;8.810;2023-02-28T19:33:44;686.60;;;449.10;;
4428;SDS011;2227;47.810;8.810;2023-02-28T19:36:12;682.92;;;435.70;;
4428;SDS011;2227;47.810;8.810;2023-02-28T19:38:40;688.25;;;432.15;;
4428;SDS011;2227;47.810;8.810;2023-02-28T19:41:10;686.45;;;427.55;;
4428;SDS011;2227;47.810;8.810;2023-02-28T19:43:38;690.05;;;436.15;;
4428;SDS011;2227;47.810;8.810;2023-02-28T19:46:05;686.10;;;430.23;;
4428;SDS011;2227;47.810;8.810;2023-02-28T19:48:32;684.38;;;421.05;;
4428;SDS011;2227;47.810;8.810;2023-02-28T19:51:00;679.78;;;425.10;;
4428;SDS011;2227;47.810;8.810;2023-02-28T19:53:29;680.70;;;428.73;;
4428;SDS011;2227;47.810;8.810;2023-02-28T19:55:57;680.67;;;421.60;;
4428;SDS011;2227;47.810;8.810;2023-02-28T19:58:26;677.15;;;427.80;;
4428;SDS011;2227;47.810;8.810;2023-02-28T20:00:53;672.38;;;418.95;;
4428;SDS011;2227;47.810;8.810;2023-02-28T20:03:19;677.58;;;421.83;;
4428;SDS011;2227;47.810;8.810;2023-02-28T20:05:47;676.50;;;431.73;;
4428;SDS011;2227;47.810;8.810;2023-02-28T20:08:24;680.88;;;424.42;;
4428;SDS011;2227;47.810;8.810;2023-02-28T20:10:52;676.88;;;419.20;;
4428;SDS011;2227;47.810;8.810;2023-02-28T20:13:19;673.80;;;419.35;;
4428;SDS011;2227;47.810;8.810;2023-02-28T20:15:50;677.00;;;429.85;;
4428;SDS011;2227;47.810;8.810;2023-02-28T20:18:17;672.42;;;424.75;;
4428;SDS011;2227;47.810;8.810;2023-02-28T20:20:44;668.38;;;417.42;;
4428;SDS011;2227;47.810;8.810;2023-02-28T20:23:10;669.47;;;424.73;;
4428;SDS011;2227;47.810;8.810;2023-02-28T20:25:38;669.17;;;424.60;;
4428;SDS011;2227;47.810;8.810;2023-02-28T20:28:05;666.95;;;416.58;;
4428;SDS011;2227;47.810;8.810;2023-02-28T20:30:32;668.28;;;421.67;;
4428;SDS011;2227;47.810;8.810;2023-02-28T20:32:59;669.53;;;416.27;;
4428;SDS011;2227;47.810;8.810;2023-02-28T20:35:26;671.95;;;417.65;;
4428;SDS011;2227;47.810;8.810;2023-02-28T20:37:52;662.53;;;409.40;;
4428;SDS011;2227;47.810;8.810;2023-02-28T20:40:19;657.78;;;407.15;;
4428;SDS011;2227;47.810;8.810;2023-02-28T20:42:46;656.30;;;413.73;;
4428;SDS011;2227;47.810;8.810;2023-02-28T20:45:13;650.40;;;410.88;;
4428;SDS011;2227;47.810;8.810;2023-02-28T20:47:39;651.65;;;417.00;;
4428;SDS011;2227;47.810;8.810;2023-02-28T20:50:08;649.35;;;418.05;;
4428;SDS011;2227;47.810;8.810;2023-02-28T20:52:36;641.15;;;420.58;;
4428;SDS011;2227;47.810;8.810;2023-02-28T20:55:03;644.17;;;429.63;;
4428;SDS011;2227;47.810;8.810;2023-02-28T20:57:30;641.72;;;421.63;;
4428;SDS011;2227;47.810;8.810;2023-02-28T20:59:57;646.70;;;415.63;;
4428;SDS011;2227;47.810;8.810;2023-02-28T21:02:23;644.83;;;417.55;;
4428;SDS011;2227;47.810;8.810;2023-02-28T21:04:51;644.55;;;416.67;;
4428;SDS011;2227;47.810;8.810;2023-02-28T21:07:18;641.65;;;416.80;;
4428;SDS011;2227;47.810;8.810;2023-02-28T21:09:44;648.17;;;416.65;;
4428;SDS011;2227;47.810;8.810;2023-02-28T21:12:11;646.60;;;412.35;;
4428;SDS011;2227;47.810;8.810;2023-02-28T21:14:38;647.03;;;422.60;;
4428;SDS011;2227;47.810;8.810;2023-02-28T21:17:04;646.20;;;423.00;;
4428;SDS011;2227;47.810;8.810;2023-02-28T21:19:34;647.78;;;420.38;;
4428;SDS011;2227;47.810;8.810;2023-02-28T21:22:00;641.83;;;422.08;;
4428;SDS011;2227;47.810;8.810;2023-02-28T21:24:27;642.45;;;422.48;;
4428;SDS011;2227;47.810;8.810;2023-02-28T21:26:54;640.67;;;423.23;;
4428;SDS011;2227;47.810;8.810;2023-02-28T21:29:22;645.00;;;428.75;;
4428;SDS011;2227;47.810;8.810;2023-02-28T21:31:49;640.90;;;431.58;;